Terminal Aerodrome Forecast
Issued by NWS

Home | Current Version | Previous Version | Text Only | Print | Product List | Glossary On
Versions: 1 2 3 4 5 6 7 8 9 10 11 12 13 14 15 16 17 18 19 20 21 22 23 24 25 26
000
FTUS45 KPSR 061120
TAFIWA
TAF
KIWA 061120Z 0612/0712 18003KT P6SM FEW050
     FM061500 18008KT P6SM FEW050 SCT070
     FM061800 23012G22KT P6SM SCT060 BKN080
     FM070300 25010KT P6SM -SHRA SCT060 BKN080
     FM070600 24005KT P6SM SCT060
     FM071000 14004KT P6SM BKN060
      AMD LTD TO CLD VIS AND WIND TIL 061300=

USA.gov is the U.S. government's official web portal to all federal, state and local government web resources and services.